createdAt,value
2018-07-03T00:01:43.210Z,95.00
2018-07-03T00:04:12.414Z,95.00
2018-07-03T00:06:42.327Z,95.10
2018-07-03T00:09:10.977Z,95.50
2018-07-03T00:11:40.142Z,95.40
2018-07-03T00:14:08.670Z,95.10
2018-07-03T00:16:43.534Z,95.10
2018-07-03T00:19:12.117Z,95.20
2018-07-03T00:21:40.666Z,95.60
2018-07-03T00:24:09.241Z,95.70
2018-07-03T00:26:39.085Z,95.60
2018-07-03T00:29:07.629Z,96.10
2018-07-03T00:31:37.176Z,96.10
2018-07-03T00:34:06.181Z,96.20
2018-07-03T00:36:34.717Z,96.30
2018-07-03T00:39:05.893Z,96.30
2018-07-03T00:41:35.036Z,96.30
2018-07-03T00:46:31.817Z,96.30
2018-07-03T00:49:00.397Z,96.30
2018-07-03T00:51:29.494Z,96.40
2018-07-03T00:53:59.305Z,96.40
2018-07-03T00:58:56.748Z,96.30
2018-07-03T01:01:25.318Z,96.60
2018-07-03T01:03:53.928Z,96.50
2018-07-03T01:06:22.470Z,96.80
2018-07-03T01:08:51.708Z,96.90
2018-07-03T01:11:20.729Z,96.80
2018-07-03T01:16:17.566Z,97.40
2018-07-03T01:18:46.150Z,97.60
2018-07-03T01:21:14.686Z,97.80
2018-07-03T01:23:43.233Z,97.90
2018-07-03T01:28:40.075Z,98.40
2018-07-03T01:31:08.674Z,98.40
2018-07-03T01:36:05.661Z,98.30
2018-07-03T01:38:34.578Z,98.40
2018-07-03T01:41:03.429Z,98.70
2018-07-03T01:46:00.246Z,98.90
2018-07-03T01:48:29.384Z,99.00
2018-07-03T01:53:26.931Z,98.80
2018-07-03T01:55:56.184Z,98.70
2018-07-03T01:58:24.770Z,98.50
2018-07-03T02:00:53.359Z,98.30
2018-07-03T02:03:21.908Z,98.60
2018-07-03T02:08:18.722Z,99.40
2018-07-03T02:10:47.534Z,99.10
2018-07-03T02:13:16.101Z,99.10
2018-07-03T02:15:44.684Z,98.90
2018-07-03T02:18:13.877Z,99.00
2018-07-03T02:20:42.818Z,99.20
2018-07-03T02:25:40.145Z,99.90
2018-07-03T02:28:08.742Z,99.70
2018-07-03T02:30:37.298Z,99.90
2018-07-03T02:33:05.912Z,99.70
2018-07-03T02:35:34.457Z,99.90
2018-07-03T02:38:04.117Z,99.80
2018-07-03T02:40:32.688Z,99.90
2018-07-03T02:43:01.263Z,99.80
2018-07-03T02:45:29.829Z,99.90
2018-07-03T02:47:58.405Z,99.90
2018-07-03T02:50:26.957Z,99.90
2018-07-03T02:52:56.482Z,99.80
2018-07-03T02:55:25.078Z,99.90
2018-07-03T02:57:54.148Z,99.80
2018-07-03T03:02:50.969Z,99.70
2018-07-03T03:05:19.501Z,99.50
2018-07-03T03:07:48.055Z,99.60
2018-07-03T03:10:16.693Z,99.90
2018-07-03T03:12:45.286Z,99.60
2018-07-03T03:15:13.870Z,98.80
2018-07-03T03:17:42.456Z,99.50
2018-07-03T03:20:11.069Z,99.60
2018-07-03T03:22:40.815Z,99.70
2018-07-03T03:25:09.397Z,99.90
2018-07-03T03:30:06.512Z,99.90
2018-07-03T03:32:35.400Z,99.80
2018-07-03T03:35:04.910Z,99.70
2018-07-03T03:37:33.591Z,99.90
2018-07-03T03:40:02.246Z,99.80
2018-07-03T03:44:59.501Z,99.90
2018-07-03T03:47:28.336Z,99.90
2018-07-03T03:49:58.177Z,99.80
2018-07-03T03:52:27.057Z,99.90
2018-07-03T03:54:55.654Z,99.90
2018-07-03T03:57:24.209Z,99.90
2018-07-03T03:59:52.845Z,99.70
2018-07-03T04:02:21.398Z,99.70
2018-07-03T04:04:50.218Z,99.80
2018-07-03T04:07:18.825Z,99.90
2018-07-03T04:12:15.621Z,99.90
2018-07-03T04:14:44.191Z,99.80
2018-07-03T04:19:46.738Z,99.80
2018-07-03T04:22:15.288Z,99.60
2018-07-03T04:24:43.870Z,99.90
2018-07-03T04:27:12.501Z,99.90
2018-07-03T04:29:41.073Z,99.90
2018-07-03T04:32:09.659Z,99.90
2018-07-03T04:34:38.253Z,99.90
2018-07-03T04:37:07.513Z,99.90
2018-07-03T04:39:36.362Z,99.90
2018-07-03T04:42:05.824Z,99.90
2018-07-03T04:44:34.394Z,99.90
2018-07-03T04:47:02.971Z,99.90
2018-07-03T04:49:31.635Z,99.90
2018-07-03T04:52:00.585Z,99.90
2018-07-03T04:54:29.130Z,99.90
2018-07-03T04:56:57.764Z,99.90
2018-07-03T04:59:26.329Z,99.90
2018-07-03T05:01:54.926Z,99.90
2018-07-03T05:04:23.481Z,99.80
2018-07-03T05:06:52.902Z,99.70
2018-07-03T05:09:22.021Z,99.60
2018-07-03T05:11:53.836Z,99.20
2018-07-03T05:14:26.184Z,98.90
2018-07-03T05:16:58.703Z,98.80
2018-07-03T05:19:29.369Z,98.20
2018-07-03T05:22:00.037Z,98.10
2018-07-03T05:24:29.360Z,96.00
2018-07-03T05:26:58.025Z,92.30
2018-07-03T05:29:26.568Z,86.10
2018-07-03T05:31:56.049Z,78.00
2018-07-03T05:34:27.559Z,71.50
2018-07-03T05:36:56.994Z,67.30
2018-07-03T05:39:25.632Z,67.30
2018-07-03T05:44:25.171Z,71.20
2018-07-03T05:46:53.824Z,75.20
2018-07-03T05:49:27.507Z,73.90
2018-07-03T05:52:01.144Z,70.80
2018-07-03T05:54:32.106Z,68.70
2018-07-03T05:57:05.097Z,69.90
2018-07-03T05:59:33.884Z,67.30
2018-07-03T06:02:02.447Z,65.50
2018-07-03T06:09:27.656Z,61.40
2018-07-03T06:11:56.262Z,60.30
2018-07-03T06:14:24.901Z,59.70
2018-07-03T06:16:56.494Z,61.00
2018-07-03T06:19:26.729Z,59.70
2018-07-03T06:24:25.461Z,59.90
2018-07-03T06:26:54.062Z,58.30
2018-07-03T06:29:22.782Z,59.30
2018-07-03T06:31:51.473Z,57.80
2018-07-03T06:34:20.153Z,60.60
2018-07-03T06:36:48.773Z,59.20
2018-07-03T06:41:46.145Z,64.90
2018-07-03T06:44:15.065Z,60.50
2018-07-03T06:46:44.995Z,60.60
2018-07-03T06:49:13.574Z,58.80
2018-07-03T06:51:42.275Z,60.00
2018-07-03T06:54:10.858Z,61.50
2018-07-03T06:56:40.280Z,60.90
2018-07-03T06:59:09.591Z,63.30
2018-07-03T07:01:39.053Z,62.30
2018-07-03T07:04:08.300Z,61.40
2018-07-03T07:06:36.951Z,60.20
2018-07-03T07:09:07.784Z,60.10
2018-07-03T07:11:36.634Z,60.90
2018-07-03T07:16:33.930Z,65.80
2018-07-03T07:19:03.177Z,63.60
2018-07-03T07:21:32.525Z,59.70
2018-07-03T07:24:01.091Z,60.00
2018-07-03T07:26:29.715Z,61.90
2018-07-03T07:28:58.350Z,62.50
2018-07-03T07:31:26.983Z,61.30
2018-07-03T07:34:00.679Z,59.70
2018-07-03T07:36:29.874Z,60.50
2018-07-03T07:38:59.186Z,60.00
2018-07-03T07:41:27.981Z,58.90
2018-07-03T07:43:56.563Z,57.80
2018-07-03T07:48:54.636Z,57.60
2018-07-03T07:51:23.220Z,58.60
2018-07-03T07:53:51.900Z,57.90
2018-07-03T07:56:20.920Z,57.10
2018-07-03T08:01:18.374Z,58.30
2018-07-03T08:03:47.490Z,58.20
2018-07-03T08:06:17.233Z,58.20
2018-07-03T08:08:46.496Z,58.00
2018-07-03T08:11:15.741Z,58.20
2018-07-03T08:13:44.375Z,58.50
2018-07-03T08:16:13.025Z,59.20
2018-07-03T08:18:41.767Z,57.00
2018-07-03T08:21:10.676Z,57.90
2018-07-03T08:23:40.189Z,56.70
2018-07-03T08:26:08.785Z,58.00
2018-07-03T08:28:37.444Z,57.40
2018-07-03T08:31:06.061Z,57.00
2018-07-03T08:33:35.127Z,56.90
2018-07-03T08:36:04.346Z,58.20
2018-07-03T08:38:33.600Z,57.20
2018-07-03T08:41:02.235Z,56.60
2018-07-03T08:43:30.849Z,55.90
2018-07-03T08:48:27.778Z,57.80
2018-07-03T08:50:57.067Z,55.90
2018-07-03T08:53:25.684Z,55.90
2018-07-03T08:55:54.453Z,55.60
2018-07-03T08:58:23.753Z,55.90
2018-07-03T09:00:52.381Z,55.30
2018-07-03T09:03:20.926Z,55.00
2018-07-03T09:05:49.588Z,52.00
2018-07-03T09:08:18.837Z,53.20
2018-07-03T09:13:15.674Z,52.10
2018-07-03T09:15:44.262Z,52.50
2018-07-03T09:18:12.925Z,50.20
2018-07-03T09:20:41.518Z,50.10
2018-07-03T09:23:10.075Z,51.30
2018-07-03T09:25:39.075Z,49.00
2018-07-03T09:28:07.756Z,48.00
2018-07-03T09:30:36.356Z,48.70
2018-07-03T09:33:05.318Z,49.40
2018-07-03T09:35:33.934Z,47.80
2018-07-03T09:38:02.520Z,47.70
2018-07-03T09:40:31.129Z,48.70
2018-07-03T09:42:59.765Z,48.40
2018-07-03T09:45:28.558Z,45.60
2018-07-03T09:47:57.257Z,46.90
2018-07-03T09:50:26.561Z,46.50
2018-07-03T09:52:55.173Z,46.60
2018-07-03T09:55:23.781Z,44.60
2018-07-03T10:00:25.971Z,45.00
2018-07-03T10:05:22.909Z,46.70
2018-07-03T10:07:52.914Z,47.30
2018-07-03T10:10:21.561Z,44.50
2018-07-03T10:12:50.212Z,45.20
2018-07-03T10:15:18.806Z,46.80
2018-07-03T10:17:47.514Z,46.30
2018-07-03T10:20:16.170Z,47.50
2018-07-03T10:22:44.916Z,46.30
2018-07-03T10:25:13.576Z,47.10
2018-07-03T10:27:42.210Z,45.80
2018-07-03T10:30:10.790Z,44.70
2018-07-03T10:32:39.443Z,44.30
2018-07-03T10:35:08.069Z,43.60
2018-07-03T10:37:36.729Z,44.20
2018-07-03T10:40:05.880Z,44.60
2018-07-03T10:42:34.511Z,43.40
2018-07-03T10:45:03.359Z,43.10
2018-07-03T10:50:00.865Z,44.00
2018-07-03T10:52:30.198Z,44.10
2018-07-03T10:54:59.057Z,44.00
2018-07-03T10:57:27.771Z,42.80
2018-07-03T10:59:56.594Z,42.60
2018-07-03T11:02:25.637Z,43.80
2018-07-03T11:04:54.573Z,43.10
2018-07-03T11:07:24.153Z,43.40
2018-07-03T11:09:52.813Z,44.70
2018-07-03T11:12:21.702Z,42.80
2018-07-03T11:14:50.458Z,43.80
2018-07-03T11:17:19.228Z,44.50
2018-07-03T11:19:48.188Z,43.90
2018-07-03T11:22:16.793Z,44.50
2018-07-03T11:24:45.567Z,43.00
2018-07-03T11:27:18.382Z,42.00
2018-07-03T11:29:48.143Z,42.40
2018-07-03T11:32:16.973Z,44.00
2018-07-03T11:34:46.277Z,43.00
2018-07-03T11:37:15.373Z,43.00
2018-07-03T11:39:44.014Z,42.90
2018-07-03T11:42:12.827Z,42.40
2018-07-03T11:44:41.684Z,42.90
2018-07-03T11:47:10.499Z,42.70
2018-07-03T11:49:39.309Z,42.30
2018-07-03T11:52:08.617Z,43.20
2018-07-03T11:54:37.371Z,43.20
2018-07-03T11:57:06.052Z,42.50
2018-07-03T11:59:35.849Z,42.50
2018-07-03T12:04:32.917Z,42.20
2018-07-03T12:07:01.586Z,43.10
2018-07-03T12:09:30.900Z,42.60
2018-07-03T12:14:27.803Z,42.20
2018-07-03T12:16:56.535Z,42.70
2018-07-03T12:21:54.063Z,42.90
2018-07-03T12:24:22.695Z,42.90
2018-07-03T12:26:52.890Z,41.70
2018-07-03T12:29:22.080Z,42.30
2018-07-03T12:31:50.767Z,42.00
2018-07-03T12:34:20.168Z,41.50
2018-07-03T12:36:50.274Z,41.50
2018-07-03T12:39:18.820Z,41.90
2018-07-03T12:41:47.498Z,41.30
2018-07-03T12:44:17.434Z,40.60
2018-07-03T12:49:14.844Z,40.70
2018-07-03T12:51:43.486Z,41.30
2018-07-03T12:56:40.502Z,41.10
2018-07-03T12:59:10.103Z,40.80
2018-07-03T13:01:38.697Z,40.00
2018-07-03T13:04:07.546Z,40.00
2018-07-03T13:06:36.169Z,40.50
2018-07-03T13:09:08.141Z,39.50
2018-07-03T13:11:37.605Z,40.60
2018-07-03T13:14:06.277Z,39.40
2018-07-03T13:19:04.377Z,39.50
2018-07-03T13:21:33.485Z,39.30
2018-07-03T13:24:03.370Z,38.90
2018-07-03T13:26:32.034Z,40.60
2018-07-03T13:29:01.433Z,39.30
2018-07-03T13:31:30.087Z,39.50
2018-07-03T13:36:30.771Z,38.80
2018-07-03T13:38:59.372Z,39.00
2018-07-03T13:41:28.064Z,38.50
2018-07-03T13:43:56.641Z,39.30
2018-07-03T13:46:25.351Z,38.80
2018-07-03T13:48:53.894Z,38.80
2018-07-03T13:51:22.971Z,39.00
2018-07-03T13:53:51.727Z,39.00
2018-07-03T13:58:49.869Z,38.60
2018-07-03T14:01:18.465Z,38.00
2018-07-03T14:03:47.979Z,38.30
2018-07-03T14:06:16.609Z,38.10
2018-07-03T14:08:45.228Z,37.10
2018-07-03T14:11:13.794Z,38.00
2018-07-03T14:13:42.415Z,38.20
2018-07-03T14:16:11.029Z,38.00
2018-07-03T14:18:40.115Z,38.00
2018-07-03T14:23:42.893Z,38.40
2018-07-03T14:26:11.743Z,37.30
2018-07-03T14:28:41.203Z,37.00
2018-07-03T14:31:09.891Z,37.30
2018-07-03T14:33:39.018Z,37.30
2018-07-03T14:36:08.505Z,37.20
2018-07-03T14:38:37.062Z,36.10
2018-07-03T14:41:05.957Z,36.90
2018-07-03T14:43:34.518Z,36.60
2018-07-03T14:46:03.893Z,37.10
2018-07-03T14:48:32.497Z,37.40
2018-07-03T14:51:01.084Z,38.10
2018-07-03T14:53:29.785Z,37.40
2018-07-03T14:55:58.349Z,36.80
2018-07-03T14:58:26.935Z,37.90
2018-07-03T15:00:55.473Z,38.60
2018-07-03T15:03:24.123Z,37.20
2018-07-03T15:05:54.025Z,37.30
2018-07-03T15:08:22.614Z,36.90
2018-07-03T15:10:53.108Z,37.40
2018-07-03T15:13:21.673Z,37.70
2018-07-03T15:15:50.261Z,37.80
2018-07-03T15:20:47.090Z,38.20
2018-07-03T15:23:15.665Z,38.60
2018-07-03T15:25:44.310Z,38.30
2018-07-03T15:28:12.901Z,37.70
2018-07-03T15:30:41.461Z,37.70
2018-07-03T15:35:38.273Z,38.30
2018-07-03T15:38:06.873Z,38.60
2018-07-03T15:40:35.488Z,38.00
2018-07-03T15:48:00.548Z,38.90
2018-07-03T15:50:29.164Z,38.60
2018-07-03T15:52:57.726Z,38.40
2018-07-03T15:55:26.362Z,38.50
2018-07-03T15:57:54.945Z,38.30
2018-07-03T16:00:23.551Z,38.50
2018-07-03T16:05:37.505Z,38.10
2018-07-03T16:09:13.973Z,38.00
2018-07-03T16:11:43.077Z,38.00
2018-07-03T16:14:12.997Z,39.40
2018-07-03T16:16:42.148Z,40.00
2018-07-03T16:19:16.213Z,38.60
2018-07-03T16:21:44.923Z,37.80
2018-07-03T16:24:13.781Z,37.70
2018-07-03T16:26:42.449Z,37.90
2018-07-03T16:29:12.533Z,37.60
2018-07-03T16:31:41.370Z,37.60
2018-07-03T16:34:10.108Z,37.80
2018-07-03T16:36:38.731Z,37.60
2018-07-03T16:39:09.438Z,38.70
2018-07-03T16:41:39.227Z,39.20
2018-07-03T16:44:08.342Z,38.80
2018-07-03T16:46:37.685Z,38.50
2018-07-03T16:49:06.286Z,38.40
2018-07-03T16:51:34.937Z,39.80
2018-07-03T16:54:03.536Z,39.10
2018-07-03T16:56:32.113Z,38.60
2018-07-03T16:59:00.775Z,38.70
2018-07-03T17:01:29.404Z,38.50
2018-07-03T17:03:57.993Z,39.00
2018-07-03T17:06:27.313Z,39.60
2018-07-03T17:11:24.158Z,40.20
2018-07-03T17:13:52.868Z,39.20
2018-07-03T17:16:21.609Z,38.80
2018-07-03T17:19:57.321Z,38.80
2018-07-03T17:22:26.480Z,39.00
2018-07-03T17:24:55.664Z,39.30
2018-07-03T17:27:24.266Z,39.50
2018-07-03T17:29:52.824Z,39.50
2018-07-03T17:32:21.407Z,42.50
2018-07-03T17:34:49.988Z,42.10
2018-07-03T17:37:18.570Z,41.10
2018-07-03T17:39:58.389Z,41.30
2018-07-03T17:42:38.921Z,42.80
2018-07-03T17:45:45.484Z,41.90
2018-07-03T17:48:15.494Z,42.80
2018-07-03T17:50:44.617Z,42.40
2018-07-03T17:55:42.557Z,44.00
2018-07-03T17:58:11.203Z,45.40
2018-07-03T18:05:36.798Z,43.40
2018-07-03T18:08:05.606Z,44.70
2018-07-03T18:10:34.161Z,45.40
2018-07-03T18:13:03.561Z,51.40
2018-07-03T18:15:32.698Z,52.80
2018-07-03T18:18:02.063Z,54.50
2018-07-03T18:20:30.646Z,54.30
2018-07-03T18:22:59.253Z,55.30
2018-07-03T18:25:27.860Z,55.50
2018-07-03T18:27:56.456Z,55.40
2018-07-03T18:30:25.043Z,56.10
2018-07-03T18:32:53.732Z,57.70
2018-07-03T18:35:22.297Z,58.60
2018-07-03T18:37:51.049Z,60.50
2018-07-03T18:40:19.688Z,61.60
2018-07-03T18:42:48.750Z,66.10
2018-07-03T18:45:17.351Z,70.00
2018-07-03T18:47:45.932Z,71.60
2018-07-03T18:50:14.529Z,72.00
2018-07-03T18:52:43.100Z,72.60
2018-07-03T18:55:12.211Z,72.00
2018-07-03T18:57:41.457Z,73.90
2018-07-03T19:00:10.813Z,73.70
2018-07-03T19:02:39.379Z,74.70
2018-07-03T19:05:08.497Z,76.20
2018-07-03T19:07:38.404Z,77.80
2018-07-03T19:10:07.877Z,78.50
2018-07-03T19:12:37.180Z,79.00
2018-07-03T19:15:06.826Z,82.80
2018-07-03T19:17:35.459Z,81.30
2018-07-03T19:20:04.175Z,82.10
2018-07-03T19:22:32.949Z,84.30
2018-07-03T19:25:02.435Z,86.40
2018-07-03T19:27:31.050Z,86.30
2018-07-03T19:29:59.713Z,86.40
2018-07-03T19:32:28.286Z,86.40
2018-07-03T19:34:57.590Z,87.50
2018-07-03T19:37:26.127Z,88.80
2018-07-03T19:39:55.165Z,89.70
2018-07-03T19:42:23.840Z,90.20
2018-07-03T19:44:52.396Z,90.20
2018-07-03T19:47:21.010Z,90.20
2018-07-03T19:49:49.589Z,90.60
2018-07-03T19:52:18.205Z,90.80
2018-07-03T19:54:46.872Z,90.90
2018-07-03T19:57:15.594Z,91.30
2018-07-03T19:59:44.673Z,90.80
2018-07-03T20:02:13.415Z,91.00
2018-07-03T20:04:43.082Z,90.40
2018-07-03T20:07:11.744Z,89.90
2018-07-03T20:09:40.379Z,90.00
2018-07-03T20:12:09.062Z,90.20
2018-07-03T20:14:37.744Z,90.10
2018-07-03T20:17:06.403Z,89.90
2018-07-03T20:19:34.981Z,90.40
2018-07-03T20:22:03.593Z,91.20
2018-07-03T20:24:32.732Z,91.20
2018-07-03T20:27:02.059Z,91.30
2018-07-03T20:29:30.647Z,91.60
2018-07-03T20:31:59.254Z,91.90
2018-07-03T20:34:27.828Z,92.20
2018-07-03T20:36:56.750Z,92.20
2018-07-03T20:39:25.777Z,91.40
2018-07-03T20:44:22.593Z,91.30
2018-07-03T20:46:51.797Z,90.20
2018-07-03T20:49:20.369Z,90.20
2018-07-03T20:51:49.013Z,89.40
2018-07-03T20:54:17.626Z,89.00
2018-07-03T20:56:46.277Z,90.10
2018-07-03T20:59:14.858Z,90.50
2018-07-03T21:01:43.402Z,91.70
2018-07-03T21:04:12.293Z,92.10
2018-07-03T21:06:40.673Z,92.30
2018-07-03T21:09:10.325Z,92.00
2018-07-03T21:14:07.226Z,92.50
2018-07-03T21:16:35.833Z,93.20
2018-07-03T21:19:04.550Z,93.30
2018-07-03T21:24:01.424Z,93.30
2018-07-03T21:26:29.935Z,92.80
2018-07-03T21:28:58.539Z,93.10
2018-07-03T21:31:27.145Z,93.50
2018-07-03T21:33:55.746Z,93.30
2018-07-03T21:38:52.585Z,93.40
2018-07-03T21:41:21.153Z,91.00
2018-07-03T21:43:49.712Z,90.50
2018-07-03T21:46:18.741Z,90.50
2018-07-03T21:48:47.314Z,91.40
2018-07-03T21:51:16.033Z,90.80
2018-07-03T21:53:44.594Z,92.50
2018-07-03T21:56:13.166Z,92.60
2018-07-03T21:58:41.728Z,92.60
2018-07-03T22:01:10.362Z,92.70
2018-07-03T22:03:38.970Z,92.80
2018-07-03T22:08:35.814Z,92.90
2018-07-03T22:11:04.468Z,92.70
2018-07-03T22:13:33.076Z,93.40
2018-07-03T22:16:01.680Z,93.40
2018-07-03T22:18:31.245Z,93.50
2018-07-03T22:20:59.857Z,93.50
2018-07-03T22:23:28.410Z,93.80
2018-07-03T22:25:57.026Z,93.90
2018-07-03T22:28:25.723Z,94.30
2018-07-03T22:30:54.708Z,94.50
2018-07-03T22:33:23.474Z,94.60
2018-07-03T22:35:52.178Z,94.60
2018-07-03T22:38:22.093Z,94.20
2018-07-03T22:40:50.696Z,94.50
2018-07-03T22:43:19.286Z,94.70
2018-07-03T22:48:16.123Z,94.50
2018-07-03T22:50:44.677Z,94.60
2018-07-03T22:53:13.284Z,94.30
2018-07-03T22:55:41.845Z,94.20
2018-07-03T22:58:10.421Z,94.30
2018-07-03T23:00:38.969Z,94.40
2018-07-03T23:05:36.208Z,94.60
2018-07-03T23:08:05.025Z,94.60
2018-07-03T23:10:33.594Z,93.80
2018-07-03T23:13:02.161Z,93.50
2018-07-03T23:15:30.734Z,95.00
2018-07-03T23:17:59.340Z,95.40
2018-07-03T23:20:27.926Z,95.50
2018-07-03T23:22:56.498Z,95.80
2018-07-03T23:25:25.077Z,93.60
2018-07-03T23:27:53.714Z,94.20
2018-07-03T23:32:51.030Z,95.30
2018-07-03T23:35:20.388Z,95.60
2018-07-03T23:40:17.163Z,95.40
2018-07-03T23:42:45.782Z,95.70
2018-07-03T23:45:14.365Z,95.60
2018-07-03T23:47:54.160Z,95.90
2018-07-03T23:53:08.205Z,96.00
2018-07-03T23:55:48.446Z,96.40
2018-07-03T23:58:28.510Z,94.20
